Time;durP1;ratioP1;P1;durP2;ratioP2;P2;SDS_P1;SDS_P2;PMS_P1;PMS_P2;Temp;Humidity;BMP_temperature;BMP_pressure;BME280_temperature;BME280_humidity;BME280_pressure;Samples;Min_cycle;Max_cycle;Signal;HPM_P1;HPM_P2
2022/10/14 00:01:06;;;;;;;;;;;10.90;99.90;;;;;;5031569;28;19920;-91
2022/10/14 00:03:32;;;;;;;;;;;10.90;99.90;;;;;;5013009;28;19921;-90
2022/10/14 00:05:57;;;;;;;;;;;10.90;99.90;;;;;;5013614;28;19921;-90
2022/10/14 00:08:23;;;;;;;;;;;10.90;99.90;;;;;;4996179;28;20334;-90
2022/10/14 00:10:49;;;;;;;;;;;11.00;99.90;;;;;;5012899;28;20451;-90
2022/10/14 00:13:15;;;;;;;;;;;11.10;99.90;;;;;;4996825;28;19947;-91
2022/10/14 00:15:41;;;;;;;;;;;12.60;99.90;;;;;;5011283;28;19920;-90
2022/10/14 00:18:07;;;;;;;;;;;12.30;99.90;;;;;;4996701;28;19921;-90
2022/10/14 00:20:33;;;;;;;;;;;11.30;99.90;;;;;;5011807;28;19927;-89
2022/10/14 00:22:59;;;;;;;;;;;10.60;99.90;;;;;;5013294;28;20298;-89
2022/10/14 00:25:25;;;;;;;;;;;11.40;99.90;;;;;;5012031;28;19920;-91
2022/10/14 00:27:51;;;;;;;;;;;11.40;99.90;;;;;;4997037;28;20327;-90
2022/10/14 00:30:16;;;;;;;;;;;11.80;99.90;;;;;;5012560;28;19932;-91
2022/10/14 00:32:42;;;;;;;;;;;11.40;99.90;;;;;;5012512;28;20288;-90
2022/10/14 00:35:08;;;;;;;;;;;11.40;99.90;;;;;;5013108;28;20051;-90
2022/10/14 00:37:33;;;;;;;;;;;11.30;99.90;;;;;;5011237;28;19921;-91
2022/10/14 00:39:59;;;;;;;;;;;12.40;99.90;;;;;;4996877;28;20006;-90
2022/10/14 00:42:24;;;;;;;;;;;12.00;99.90;;;;;;4995333;28;20377;-91
2022/10/14 00:44:50;;;;;;;;;;;11.20;99.90;;;;;;4996516;28;19966;-90
2022/10/14 00:47:16;;;;;;;;;;;11.20;99.90;;;;;;5011966;28;20019;-91
2022/10/14 00:49:42;;;;;;;;;;;11.20;99.90;;;;;;5012472;28;20407;-91
2022/10/14 00:52:14;;;;;;;;;;;11.10;99.90;;;;;;5029073;28;19920;-90
2022/10/14 00:54:41;;;;;;;;;;;11.50;99.90;;;;;;5008173;28;19921;-91
2022/10/14 00:57:08;;;;;;;;;;;11.10;99.90;;;;;;5009987;28;19979;-91
2022/10/14 00:59:33;;;;;;;;;;;11.10;99.90;;;;;;5007798;28;19925;-91
2022/10/14 01:01:59;;;;;;;;;;;12.50;99.90;;;;;;4993107;28;19921;-90
2022/10/14 01:04:25;;;;;;;;;;;11.10;99.90;;;;;;4992163;28;19925;-91
2022/10/14 01:06:56;;;;;;;;;;;12.00;99.90;;;;;;4993084;28;20288;-91
2022/10/14 01:09:30;;;;;;;;;;;11.10;99.90;;;;;;5009174;28;20024;-90
2022/10/14 01:12:08;;;;;;;;;;;11.00;99.90;;;;;;5008012;28;20160;-90
2022/10/14 01:14:33;;;;;;;;;;;11.00;99.90;;;;;;5009042;28;20389;-91
2022/10/14 01:17:11;;;;;;;;;;;11.00;99.90;;;;;;5008330;28;19921;-91
2022/10/14 01:19:43;;;;;;;;;;;10.90;99.90;;;;;;5008576;28;19921;-89
2022/10/14 01:22:17;;;;;;;;;;;10.90;99.90;;;;;;5008986;28;19921;-91
2022/10/14 01:24:49;;;;;;;;;;;10.90;99.90;;;;;;5012745;28;20311;-91
2022/10/14 01:27:15;;;;;;;;;;;10.90;99.90;;;;;;5016388;28;19971;-90
2022/10/14 01:29:59;;;;;;;;;;;11.70;99.90;;;;;;5015056;28;19921;-91
2022/10/14 01:32:28;;;;;;;;;;;10.90;99.90;;;;;;5016301;28;19971;-90
2022/10/14 01:35:00;;;;;;;;;;;10.80;99.90;;;;;;5016712;28;20356;-91
2022/10/14 01:37:27;;;;;;;;;;;11.40;99.90;;;;;;5021210;28;19968;-90
2022/10/14 01:39:56;;;;;;;;;;;10.80;99.90;;;;;;5027561;28;19921;-91
2022/10/14 01:42:24;;;;;;;;;;;10.70;99.90;;;;;;5026168;28;20909;-90
2022/10/14 01:44:53;;;;;;;;;;;11.70;99.90;;;;;;5026461;28;19967;-91
2022/10/14 01:47:19;;;;;;;;;;;10.70;99.90;;;;;;5026345;28;20401;-90
2022/10/14 01:50:17;;;;;;;;;;;11.60;99.90;;;;;;5009771;28;19921;-91
2022/10/14 01:52:47;;;;;;;;;;;10.60;99.90;;;;;;4984733;28;19921;-91
2022/10/14 01:55:15;;;;;;;;;;;11.20;99.90;;;;;;5015696;28;20011;-92
2022/10/14 01:57:42;;;;;;;;;;;10.70;99.90;;;;;;5016946;28;19921;-91
2022/10/14 02:00:08;;;;;;;;;;;10.60;99.90;;;;;;4999480;28;19964;-91
2022/10/14 02:02:37;;;;;;;;;;;10.60;99.90;;;;;;4998935;28;19960;-90
2022/10/14 02:05:05;;;;;;;;;;;10.60;99.90;;;;;;5014647;28;19921;-91
2022/10/14 02:07:35;;;;;;;;;;;10.60;99.90;;;;;;5014401;28;19925;-91
2022/10/14 02:10:01;;;;;;;;;;;9.70;99.90;;;;;;5015429;28;19932;-91
2022/10/14 02:12:26;;;;;;;;;;;10.60;99.90;;;;;;5014068;28;19921;-91
2022/10/14 02:14:55;;;;;;;;;;;10.90;99.90;;;;;;5014908;28;19921;-90
2022/10/14 02:17:24;;;;;;;;;;;10.50;99.90;;;;;;5014234;28;19968;-91
2022/10/14 02:19:53;;;;;;;;;;;10.50;99.90;;;;;;5014359;28;19928;-90
2022/10/14 02:22:23;;;;;;;;;;;11.40;99.90;;;;;;5015120;28;20379;-90
2022/10/14 02:24:51;;;;;;;;;;;10.50;99.90;;;;;;5013491;28;19992;-91
2022/10/14 02:27:18;;;;;;;;;;;10.50;99.90;;;;;;5015014;28;20435;-91
2022/10/14 02:29:45;;;;;;;;;;;10.40;99.90;;;;;;5013247;28;19921;-92
2022/10/14 02:32:12;;;;;;;;;;;11.40;99.90;;;;;;4999356;28;20016;-92
2022/10/14 02:34:38;;;;;;;;;;;11.20;99.90;;;;;;5013531;28;20491;-91
2022/10/14 02:37:04;;;;;;;;;;;11.30;99.90;;;;;;4994826;28;20435;-91
2022/10/14 02:39:31;;;;;;;;;;;10.70;99.90;;;;;;5012220;28;19921;-90
2022/10/14 02:41:57;;;;;;;;;;;11.40;99.90;;;;;;5010327;28;20384;-91
2022/10/14 02:44:22;;;;;;;;;;;10.40;99.90;;;;;;5011943;28;19921;-91
2022/10/14 02:46:48;;;;;;;;;;;11.60;99.90;;;;;;5026653;28;19971;-91
2022/10/14 02:49:14;;;;;;;;;;;10.30;99.90;;;;;;4995883;28;20007;-90
2022/10/14 02:51:40;;;;;;;;;;;11.60;99.90;;;;;;4994338;28;20368;-91
2022/10/14 02:54:05;;;;;;;;;;;11.60;99.90;;;;;;4995633;28;19980;-91
2022/10/14 02:56:31;;;;;;;;;;;11.20;99.90;;;;;;4997792;28;20007;-91
2022/10/14 02:58:56;;;;;;;;;;;10.30;99.90;;;;;;4997710;28;19920;-91
2022/10/14 03:01:22;;;;;;;;;;;11.30;99.90;;;;;;4998044;28;20299;-91
2022/10/14 03:03:47;;;;;;;;;;;11.50;99.90;;;;;;4997713;28;19928;-92
2022/10/14 03:06:13;;;;;;;;;;;10.30;99.90;;;;;;5015337;28;19921;-90
2022/10/14 03:08:39;;;;;;;;;;;10.30;99.90;;;;;;4997617;28;20003;-91
2022/10/14 03:11:04;;;;;;;;;;;11.60;99.90;;;;;;5015062;28;19936;-91
2022/10/14 03:13:30;;;;;;;;;;;10.30;99.90;;;;;;5016081;28;19925;-91
2022/10/14 03:15:57;;;;;;;;;;;10.30;99.90;;;;;;5015284;28;20004;-92
2022/10/14 03:18:22;;;;;;;;;;;11.20;99.90;;;;;;5016375;28;19943;-90
2022/10/14 03:20:48;;;;;;;;;;;11.00;99.90;;;;;;4998349;28;20420;-91
2022/10/14 03:23:13;;;;;;;;;;;11.60;99.90;;;;;;5000706;28;19921;-90
2022/10/14 03:25:39;;;;;;;;;;;10.30;99.90;;;;;;4998063;28;19928;-91
2022/10/14 03:28:05;;;;;;;;;;;11.10;99.90;;;;;;5015591;28;19974;-93
2022/10/14 03:30:31;;;;;;;;;;;11.60;99.90;;;;;;4999218;28;19920;-92
2022/10/14 03:32:57;;;;;;;;;;;11.50;99.90;;;;;;5017078;28;19947;-92
2022/10/14 03:35:22;;;;;;;;;;;10.70;99.90;;;;;;5003478;28;19951;-92
2022/10/14 03:37:48;;;;;;;;;;;10.20;99.90;;;;;;5001106;28;19920;-90
2022/10/14 03:40:14;;;;;;;;;;;10.20;99.90;;;;;;5020283;28;19920;-91
2022/10/14 03:42:40;;;;;;;;;;;10.20;99.90;;;;;;5019445;28;20584;-91
2022/10/14 03:45:07;;;;;;;;;;;11.30;99.90;;;;;;5020340;28;19920;-90
2022/10/14 03:47:32;;;;;;;;;;;10.20;99.90;;;;;;5008260;28;19921;-91
2022/10/14 03:49:59;;;;;;;;;;;11.60;99.90;;;;;;5011779;28;19946;-91
2022/10/14 03:52:25;;;;;;;;;;;10.20;99.90;;;;;;5015423;28;19927;-91
2022/10/14 03:54:51;;;;;;;;;;;11.50;99.90;;;;;;5015092;28;19921;-91
2022/10/14 03:57:17;;;;;;;;;;;11.00;99.90;;;;;;5033126;28;19952;-93
2022/10/14 03:59:43;;;;;;;;;;;11.30;99.90;;;;;;5021175;28;19948;-91
2022/10/14 04:02:09;;;;;;;;;;;10.20;99.90;;;;;;5022852;28;19929;-91
2022/10/14 04:04:35;;;;;;;;;;;10.30;99.90;;;;;;5021049;28;20060;-92
2022/10/14 04:07:00;;;;;;;;;;;10.20;99.90;;;;;;5037912;28;20000;-91
2022/10/14 04:09:27;;;;;;;;;;;10.20;99.90;;;;;;5021223;28;19921;-92
2022/10/14 04:11:56;;;;;;;;;;;11.20;99.90;;;;;;5035595;28;19943;-91
2022/10/14 04:14:25;;;;;;;;;;;11.30;99.90;;;;;;5028238;28;19952;-91
2022/10/14 04:16:51;;;;;;;;;;;10.20;99.90;;;;;;5029285;28;19921;-91
2022/10/14 04:19:17;;;;;;;;;;;11.50;99.90;;;;;;5025878;28;20027;-90
2022/10/14 04:21:43;;;;;;;;;;;10.80;99.90;;;;;;5019960;28;19927;-91
2022/10/14 04:24:09;;;;;;;;;;;10.20;99.90;;;;;;5023007;28;19920;-91
2022/10/14 04:26:34;;;;;;;;;;;10.20;99.90;;;;;;5001049;28;20265;-92
2022/10/14 04:29:00;;;;;;;;;;;11.50;99.90;;;;;;5000262;28;20281;-92
2022/10/14 04:31:26;;;;;;;;;;;11.30;99.90;;;;;;5000416;28;20016;-91
2022/10/14 04:33:52;;;;;;;;;;;10.30;99.90;;;;;;4997547;28;19921;-91
2022/10/14 04:36:17;;;;;;;;;;;10.30;99.90;;;;;;5015752;28;19921;-91
2022/10/14 04:38:43;;;;;;;;;;;10.30;99.90;;;;;;4997024;28;20391;-91
2022/10/14 04:41:08;;;;;;;;;;;10.40;99.90;;;;;;4997117;28;19920;-91
2022/10/14 04:43:34;;;;;;;;;;;10.40;99.90;;;;;;4995557;28;19924;-91
2022/10/14 04:46:00;;;;;;;;;;;11.30;99.90;;;;;;5013409;28;19921;-89
2022/10/14 04:48:26;;;;;;;;;;;9.50;99.90;;;;;;5023431;28;19984;-92
2022/10/14 04:50:52;;;;;;;;;;;10.50;99.90;;;;;;4997152;28;19943;-89
2022/10/14 04:53:17;;;;;;;;;;;11.70;99.90;;;;;;4995895;28;19924;-88
2022/10/14 04:55:44;;;;;;;;;;;11.30;99.90;;;;;;4994643;28;20335;-90
2022/10/14 04:58:10;;;;;;;;;;;10.50;99.90;;;;;;5028260;28;20339;-89
2022/10/14 05:00:35;;;;;;;;;;;10.50;99.90;;;;;;5029632;28;19965;-88
2022/10/14 05:03:01;;;;;;;;;;;10.80;99.90;;;;;;5013700;28;20357;-91
2022/10/14 05:05:27;;;;;;;;;;;10.60;99.90;;;;;;4997789;28;20062;-90
2022/10/14 05:07:52;;;;;;;;;;;11.30;99.90;;;;;;4996348;28;19921;-91
2022/10/14 05:10:18;;;;;;;;;;;11.80;99.90;;;;;;5000655;28;20372;-90
2022/10/14 05:12:43;;;;;;;;;;;11.40;99.90;;;;;;5001596;28;20407;-90
2022/10/14 05:15:10;;;;;;;;;;;11.30;99.90;;;;;;5019590;28;19943;-91
2022/10/14 05:17:36;;;;;;;;;;;10.40;99.90;;;;;;5003346;28;19921;-90
2022/10/14 05:20:02;;;;;;;;;;;11.80;99.90;;;;;;5020221;28;19928;-92
2022/10/14 05:22:28;;;;;;;;;;;10.40;99.90;;;;;;5002867;28;19928;-91
2022/10/14 05:24:53;;;;;;;;;;;10.30;99.90;;;;;;5018745;28;20294;-90
2022/10/14 05:27:19;;;;;;;;;;;10.40;99.90;;;;;;5018708;28;19924;-90
2022/10/14 05:29:44;;;;;;;;;;;10.40;99.90;;;;;;5001933;28;19983;-91
2022/10/14 05:32:10;;;;;;;;;;;9.30;99.90;;;;;;5002584;28;19922;-90
2022/10/14 05:34:35;;;;;;;;;;;10.40;99.90;;;;;;5001310;28;19932;-90
2022/10/14 05:37:01;;;;;;;;;;;10.40;99.90;;;;;;5000256;28;19963;-90
2022/10/14 05:39:27;;;;;;;;;;;10.40;99.90;;;;;;4995517;28;19966;-90
2022/10/14 05:41:53;;;;;;;;;;;10.40;99.90;;;;;;4995653;28;20011;-90
2022/10/14 05:44:18;;;;;;;;;;;11.10;99.90;;;;;;4995886;28;20318;-89
2022/10/14 05:46:44;;;;;;;;;;;11.20;99.90;;;;;;4995819;28;19921;-90
2022/10/14 05:49:10;;;;;;;;;;;10.90;99.90;;;;;;4995322;28;20288;-89
2022/10/14 05:51:36;;;;;;;;;;;10.40;99.90;;;;;;5011196;28;20288;-90
2022/10/14 05:54:01;;;;;;;;;;;10.40;99.90;;;;;;5012205;28;19920;-93
2022/10/14 05:56:27;;;;;;;;;;;10.40;99.90;;;;;;5011266;28;19920;-93
2022/10/14 05:58:53;;;;;;;;;;;10.40;99.90;;;;;;5012562;28;19931;-93
2022/10/14 06:01:18;;;;;;;;;;;10.50;99.90;;;;;;4996633;28;20418;-93
2022/10/14 06:03:44;;;;;;;;;;;10.50;99.90;;;;;;4995592;28;19921;-93
2022/10/14 06:06:11;;;;;;;;;;;10.40;99.90;;;;;;4998388;28;20011;-92
2022/10/14 06:08:37;;;;;;;;;;;10.40;99.90;;;;;;5028420;28;19921;-93
2022/10/14 06:11:03;;;;;;;;;;;10.40;99.90;;;;;;4999264;28;20422;-94
2022/10/14 06:13:29;;;;;;;;;;;10.40;99.90;;;;;;5015028;28;20364;-92
2022/10/14 06:15:54;;;;;;;;;;;11.80;99.90;;;;;;4998892;28;19920;-93
2022/10/14 06:18:20;;;;;;;;;;;10.50;99.90;;;;;;4999902;28;19920;-93
2022/10/14 06:20:52;;;;;;;;;;;10.50;99.90;;;;;;4999772;28;20341;-94
2022/10/14 06:23:18;;;;;;;;;;;10.50;99.90;;;;;;5015468;28;19967;-95
2022/10/14 06:25:43;;;;;;;;;;;11.20;99.90;;;;;;4999507;28;19920;-94
2022/10/14 06:28:09;;;;;;;;;;;11.40;99.90;;;;;;5016756;28;19927;-95
2022/10/14 06:30:34;;;;;;;;;;;10.50;99.90;;;;;;5000856;28;19978;-94
2022/10/14 06:33:00;;;;;;;;;;;11.80;99.90;;;;;;5015384;28;19920;-94
2022/10/14 06:35:26;;;;;;;;;;;11.60;99.90;;;;;;5015707;28;19931;-94
2022/10/14 06:37:51;;;;;;;;;;;10.70;99.90;;;;;;5015254;28;20335;-95
2022/10/14 06:40:17;;;;;;;;;;;10.70;99.90;;;;;;4998854;28;20028;-93
2022/10/14 06:42:43;;;;;;;;;;;10.70;99.90;;;;;;5016544;28;19921;-93
2022/10/14 06:45:08;;;;;;;;;;;10.70;99.90;;;;;;4999058;28;20007;-94
2022/10/14 06:47:34;;;;;;;;;;;10.70;99.90;;;;;;4998061;28;19925;-91
2022/10/14 06:50:00;;;;;;;;;;;10.70;99.90;;;;;;5015672;28;19975;-91
2022/10/14 06:52:25;;;;;;;;;;;10.70;99.90;;;;;;4998020;28;19920;-95
2022/10/14 06:54:51;;;;;;;;;;;12.00;99.90;;;;;;4998837;28;19920;-95
2022/10/14 06:57:16;;;;;;;;;;;10.70;99.90;;;;;;5013876;28;19972;-93
2022/10/14 06:59:42;;;;;;;;;;;10.80;99.90;;;;;;4998323;28;19921;-94
2022/10/14 07:02:08;;;;;;;;;;;11.70;99.90;;;;;;5014594;28;20054;-93
2022/10/14 07:04:34;;;;;;;;;;;12.10;99.90;;;;;;5015822;28;20011;-96
2022/10/14 07:06:59;;;;;;;;;;;10.90;99.90;;;;;;5017203;28;20442;-94
2022/10/14 07:09:25;;;;;;;;;;;10.90;99.90;;;;;;5015068;28;19946;-94
2022/10/14 07:11:50;;;;;;;;;;;11.60;99.90;;;;;;4998377;28;20017;-93
2022/10/14 07:14:16;;;;;;;;;;;11.10;99.90;;;;;;5013502;28;19931;-93
2022/10/14 07:16:42;;;;;;;;;;;11.40;99.90;;;;;;5013774;28;19984;-91
2022/10/14 07:19:08;;;;;;;;;;;10.90;99.90;;;;;;5013980;28;20396;-92
2022/10/14 07:21:33;;;;;;;;;;;10.90;99.90;;;;;;5012426;28;19925;-93
2022/10/14 07:23:59;;;;;;;;;;;11.00;99.90;;;;;;5013503;28;19976;-90
2022/10/14 07:26:25;;;;;;;;;;;11.00;99.90;;;;;;4997415;28;20034;-90
2022/10/14 07:28:50;;;;;;;;;;;11.00;99.90;;;;;;5014344;28;20375;-90
2022/10/14 07:31:16;;;;;;;;;;;11.10;99.90;;;;;;4997552;28;20023;-91
2022/10/14 07:33:42;;;;;;;;;;;11.00;99.90;;;;;;5013719;28;19966;-91
2022/10/14 07:36:09;;;;;;;;;;;11.10;99.90;;;;;;5013113;28;19925;-88
2022/10/14 07:38:35;;;;;;;;;;;11.10;99.90;;;;;;5012681;28;20411;-91
2022/10/14 07:41:02;;;;;;;;;;;11.10;99.90;;;;;;4996695;28;20024;-89
2022/10/14 07:43:28;;;;;;;;;;;11.20;99.90;;;;;;5013230;28;20037;-89
2022/10/14 07:46:00;;;;;;;;;;;11.80;99.90;;;;;;4997615;28;20011;-91
2022/10/14 07:48:27;;;;;;;;;;;11.20;99.90;;;;;;5013318;28;19921;-91
2022/10/14 07:50:53;;;;;;;;;;;11.30;99.90;;;;;;5012815;28;19921;-88
2022/10/14 07:53:18;;;;;;;;;;;11.30;99.90;;;;;;5011923;28;20010;-90
2022/10/14 07:55:51;;;;;;;;;;;11.30;99.90;;;;;;4995730;28;19927;-92
2022/10/14 07:58:20;;;;;;;;;;;12.00;99.90;;;;;;4997402;28;19972;-89
2022/10/14 08:00:46;;;;;;;;;;;10.40;99.90;;;;;;4996139;28;20087;-89
2022/10/14 08:03:12;;;;;;;;;;;12.00;99.90;;;;;;4996374;28;19924;-89
2022/10/14 08:05:37;;;;;;;;;;;11.40;99.90;;;;;;4995680;28;19921;-89
2022/10/14 08:08:03;;;;;;;;;;;11.40;99.90;;;;;;4996125;28;19921;-89
2022/10/14 08:10:29;;;;;;;;;;;11.40;99.90;;;;;;4996650;28;19927;-89
2022/10/14 08:12:56;;;;;;;;;;;11.60;99.90;;;;;;5012903;28;20360;-89
2022/10/14 08:15:22;;;;;;;;;;;11.40;99.90;;;;;;5006112;28;19921;-94
2022/10/14 08:17:48;;;;;;;;;;;11.50;99.90;;;;;;5002758;28;19967;-88
2022/10/14 08:20:13;;;;;;;;;;;11.50;99.90;;;;;;5021387;28;20339;-89
2022/10/14 08:22:39;;;;;;;;;;;11.60;99.90;;;;;;5003613;28;20001;-88
2022/10/14 08:25:04;;;;;;;;;;;11.50;99.90;;;;;;5013724;28;19935;-90
2022/10/14 08:27:30;;;;;;;;;;;11.60;99.90;;;;;;5017207;28;19959;-88
2022/10/14 08:29:55;;;;;;;;;;;11.60;99.90;;;;;;5002364;28;19928;-90
2022/10/14 08:32:22;;;;;;;;;;;12.60;99.90;;;;;;5003726;28;19971;-89
2022/10/14 08:34:47;;;;;;;;;;;11.70;99.90;;;;;;5031437;28;19921;-90
2022/10/14 08:37:13;;;;;;;;;;;12.90;99.90;;;;;;5036904;28;20398;-89
2022/10/14 08:39:38;;;;;;;;;;;12.00;99.90;;;;;;5003015;28;19944;-88
2022/10/14 08:42:08;;;;;;;;;;;11.80;99.90;;;;;;5032677;28;19935;-87
2022/10/14 08:44:40;;;;;;;;;;;11.90;99.90;;;;;;5028405;28;20027;-89
2022/10/14 08:47:10;;;;;;;;;;;11.90;99.90;;;;;;5014149;28;20391;-89
2022/10/14 08:50:00;;;;;;;;;;;11.90;99.90;;;;;;5030173;28;19975;-89
2022/10/14 08:52:46;;;;;;;;;;;12.00;99.90;;;;;;5006321;28;19920;-88
2022/10/14 08:55:21;;;;;;;;;;;13.00;99.90;;;;;;5005774;28;20351;-91
2022/10/14 08:57:52;;;;;;;;;;;12.10;99.90;;;;;;5029040;28;20038;-89
2022/10/14 09:00:19;;;;;;;;;;;12.20;99.90;;;;;;5027876;28;19989;-86
2022/10/14 09:02:46;;;;;;;;;;;12.20;99.90;;;;;;5045862;28;19920;-87
2022/10/14 09:05:16;;;;;;;;;;;12.30;99.90;;;;;;5027138;28;19927;-87
2022/10/14 09:07:42;;;;;;;;;;;12.30;99.90;;;;;;5027478;28;19920;-87
2022/10/14 09:10:11;;;;;;;;;;;12.40;99.90;;;;;;5010846;28;20264;-87
2022/10/14 09:12:38;;;;;;;;;;;12.40;99.90;;;;;;5027921;28;20019;-87
2022/10/14 09:15:07;;;;;;;;;;;12.50;99.90;;;;;;5027831;28;19921;-87
2022/10/14 09:17:56;;;;;;;;;;;12.50;99.90;;;;;;5010910;28;19928;-87
2022/10/14 09:20:23;;;;;;;;;;;12.50;99.90;;;;;;5026475;28;19963;-87
2022/10/14 09:23:17;;;;;;;;;;;12.50;99.90;;;;;;5027584;28;19920;-87
2022/10/14 09:25:51;;;;;;;;;;;12.60;99.90;;;;;;5011175;28;20279;-87
2022/10/14 09:28:18;;;;;;;;;;;12.60;99.90;;;;;;5011831;28;19931;-88
2022/10/14 09:30:43;;;;;;;;;;;12.70;99.90;;;;;;5011860;28;19921;-87
2022/10/14 09:33:13;;;;;;;;;;;13.50;99.90;;;;;;5011499;28;19928;-88
2022/10/14 09:35:40;;;;;;;;;;;12.80;99.90;;;;;;5010637;28;20426;-87
2022/10/14 09:38:06;;;;;;;;;;;12.80;99.90;;;;;;5011202;28;19943;-87
2022/10/14 09:40:36;;;;;;;;;;;13.20;99.90;;;;;;5010809;28;19920;-87
2022/10/14 09:43:08;;;;;;;;;;;12.80;99.90;;;;;;5010950;28;19967;-88
2022/10/14 09:45:52;;;;;;;;;;;12.80;99.90;;;;;;5029955;28;20050;-89
2022/10/14 09:48:32;;;;;;;;;;;12.80;99.90;;;;;;5031609;28;19927;-87
2022/10/14 09:50:59;;;;;;;;;;;12.80;99.90;;;;;;5031817;28;19921;-87
2022/10/14 09:53:32;;;;;;;;;;;12.90;99.90;;;;;;5015197;28;19925;-87
2022/10/14 09:55:58;;;;;;;;;;;12.90;99.90;;;;;;5013726;28;20438;-88
2022/10/14 09:58:44;;;;;;;;;;;12.90;99.90;;;;;;5014661;28;19921;-87
2022/10/14 10:01:14;;;;;;;;;;;13.00;99.90;;;;;;5014095;28;19925;-86
2022/10/14 10:03:40;;;;;;;;;;;13.00;99.90;;;;;;5030708;28;19928;-88
2022/10/14 10:06:08;;;;;;;;;;;13.00;99.90;;;;;;5030169;28;19925;-87
2022/10/14 10:08:37;;;;;;;;;;;13.00;99.90;;;;;;5030731;28;20035;-88
2022/10/14 10:11:09;;;;;;;;;;;13.10;99.90;;;;;;5014185;28;20229;-88
2022/10/14 10:13:38;;;;;;;;;;;13.10;99.90;;;;;;5014200;28;20288;-87
2022/10/14 10:16:05;;;;;;;;;;;13.10;99.90;;;;;;5013619;28;19975;-87
2022/10/14 10:18:31;;;;;;;;;;;13.20;99.90;;;;;;5013628;28;19921;-88
2022/10/14 10:21:01;;;;;;;;;;;13.20;99.90;;;;;;5014334;28;19925;-88
2022/10/14 10:23:28;;;;;;;;;;;13.20;99.90;;;;;;5014607;28;19978;-87
2022/10/14 10:25:54;;;;;;;;;;;14.20;99.90;;;;;;5014298;28;19927;-87
2022/10/14 10:28:30;;;;;;;;;;;13.30;99.90;;;;;;5015134;28;19928;-87
2022/10/14 10:31:05;;;;;;;;;;;13.30;99.90;;;;;;5014780;28;20399;-87
2022/10/14 10:33:36;;;;;;;;;;;13.30;99.90;;;;;;5015181;28;19921;-87
2022/10/14 10:36:05;;;;;;;;;;;13.40;99.90;;;;;;5014828;28;19921;-87
2022/10/14 10:38:34;;;;;;;;;;;13.40;99.90;;;;;;5014640;28;20313;-87
2022/10/14 10:41:14;;;;;;;;;;;13.50;99.90;;;;;;5015258;28;19921;-87
2022/10/14 10:43:58;;;;;;;;;;;13.50;99.90;;;;;;5014542;28;19928;-87
2022/10/14 10:46:29;;;;;;;;;;;13.50;99.90;;;;;;5031706;28;20372;-87
2022/10/14 10:49:01;;;;;;;;;;;13.60;99.90;;;;;;5030826;28;19920;-88
2022/10/14 10:51:34;;;;;;;;;;;13.60;99.90;;;;;;5030659;28;20306;-88
2022/10/14 10:54:01;;;;;;;;;;;13.70;99.90;;;;;;5030834;28;19924;-87
2022/10/14 10:56:33;;;;;;;;;;;13.70;99.90;;;;;;5008805;28;20459;-87
2022/10/14 10:59:08;;;;;;;;;;;13.70;99.90;;;;;;5010425;28;19975;-87
2022/10/14 11:01:53;;;;;;;;;;;13.70;99.90;;;;;;5010058;28;19928;-87
2022/10/14 11:04:32;;;;;;;;;;;13.60;99.90;;;;;;5010961;28;19921;-87
2022/10/14 11:12:38;;;;;;;;;;;15.10;99.90;;;;;;5026784;28;19921;-87
2022/10/14 11:15:20;;;;;;;;;;;13.80;99.90;;;;;;5010485;28;20051;-87
2022/10/14 11:17:58;;;;;;;;;;;13.80;99.90;;;;;;5026171;28;19928;-87
2022/10/14 11:20:30;;;;;;;;;;;13.80;99.90;;;;;;5026061;28;19921;-88
2022/10/14 11:23:14;;;;;;;;;;;13.80;99.90;;;;;;5025812;28;19928;-87
2022/10/14 11:25:55;;;;;;;;;;;13.80;99.90;;;;;;5010069;28;19921;-87
2022/10/14 11:28:27;;;;;;;;;;;13.70;99.90;;;;;;5010370;28;19921;-85
2022/10/14 11:30:59;;;;;;;;;;;14.40;99.90;;;;;;5026262;28;20343;-88
2022/10/14 11:33:25;;;;;;;;;;;13.70;99.90;;;;;;5010304;28;20292;-87
2022/10/14 11:36:15;;;;;;;;;;;13.70;99.90;;;;;;5009079;28;19990;-88
2022/10/14 11:38:59;;;;;;;;;;;13.80;99.90;;;;;;5027156;28;19928;-89
2022/10/14 11:41:44;;;;;;;;;;;13.80;99.90;;;;;;5026535;28;19920;-89
2022/10/14 11:44:10;;;;;;;;;;;13.80;99.90;;;;;;5009959;28;20304;-89
2022/10/14 11:46:38;;;;;;;;;;;13.80;99.90;;;;;;5010990;28;19974;-89
2022/10/14 11:49:12;;;;;;;;;;;13.80;99.90;;;;;;5010155;28;19967;-90
2022/10/14 11:51:41;;;;;;;;;;;13.90;99.90;;;;;;5011132;28;20034;-88
2022/10/14 11:54:27;;;;;;;;;;;14.60;99.90;;;;;;5010485;28;20005;-89
2022/10/14 11:57:04;;;;;;;;;;;13.90;99.90;;;;;;5029436;28;19927;-91
2022/10/14 11:59:36;;;;;;;;;;;13.90;99.90;;;;;;5013629;28;19974;-90
2022/10/14 12:02:11;;;;;;;;;;;13.90;99.90;;;;;;5031346;28;20007;-90
2022/10/14 12:04:39;;;;;;;;;;;13.90;99.90;;;;;;5013108;28;20101;-89
2022/10/14 12:07:16;;;;;;;;;;;13.80;99.90;;;;;;5013623;28;19928;-90
2022/10/14 12:09:45;;;;;;;;;;;13.90;99.90;;;;;;5014024;28;19922;-89
2022/10/14 12:12:12;;;;;;;;;;;14.00;99.90;;;;;;5014335;28;20006;-90
2022/10/14 12:14:50;;;;;;;;;;;14.00;99.90;;;;;;5029532;28;19921;-90
2022/10/14 12:17:31;;;;;;;;;;;14.10;99.90;;;;;;5013504;28;19920;-89
2022/10/14 12:19:58;;;;;;;;;;;14.00;99.90;;;;;;5030720;28;20265;-89
2022/10/14 12:22:25;;;;;;;;;;;13.90;99.90;;;;;;5012866;28;19954;-88
2022/10/14 12:24:55;;;;;;;;;;;13.90;99.90;;;;;;5012333;28;19928;-89
2022/10/14 12:27:22;;;;;;;;;;;13.80;99.90;;;;;;5028948;28;20027;-89
2022/10/14 12:29:48;;;;;;;;;;;14.10;99.90;;;;;;5013440;28;19920;-89
2022/10/14 12:32:22;;;;;;;;;;;13.80;99.90;;;;;;5011960;28;20320;-88
2022/10/14 12:35:00;;;;;;;;;;;13.90;99.90;;;;;;5013591;28;19921;-91
2022/10/14 12:37:36;;;;;;;;;;;13.90;99.90;;;;;;5012169;28;20019;-88
2022/10/14 12:40:02;;;;;;;;;;;13.90;99.90;;;;;;5027646;28;20015;-87
2022/10/14 12:42:48;;;;;;;;;;;14.00;99.90;;;;;;5027909;28;19963;-88
2022/10/14 12:45:20;;;;;;;;;;;14.00;99.90;;;;;;4994253;28;19921;-88
2022/10/14 12:47:46;;;;;;;;;;;14.00;99.90;;;;;;5027887;28;19927;-88
2022/10/14 12:50:15;;;;;;;;;;;14.00;99.90;;;;;;5011085;28;19999;-90
2022/10/14 12:52:45;;;;;;;;;;;14.00;99.90;;;;;;5028098;28;20295;-89
2022/10/14 12:55:16;;;;;;;;;;;14.00;99.90;;;;;;5008156;28;20376;-88
2022/10/14 12:57:42;;;;;;;;;;;13.90;99.90;;;;;;5008747;28;19921;-90
2022/10/14 13:00:21;;;;;;;;;;;13.90;99.90;;;;;;5010150;28;19967;-88
2022/10/14 13:02:47;;;;;;;;;;;13.90;99.90;;;;;;5030353;28;19925;-91
2022/10/14 13:05:29;;;;;;;;;;;13.90;99.90;;;;;;4994637;28;19921;-88
2022/10/14 13:08:14;;;;;;;;;;;13.90;99.90;;;;;;5015856;28;20292;-90
2022/10/14 13:10:48;;;;;;;;;;;13.90;99.90;;;;;;5011824;28;19928;-88
2022/10/14 13:13:33;;;;;;;;;;;13.90;99.90;;;;;;5029416;28;19988;-89
2022/10/14 13:15:58;;;;;;;;;;;13.80;99.90;;;;;;5037173;28;19924;-89
2022/10/14 13:18:27;;;;;;;;;;;14.70;99.90;;;;;;5039254;28;19988;-90
2022/10/14 13:20:53;;;;;;;;;;;13.90;99.90;;;;;;5023124;28;19921;-91
2022/10/14 13:23:27;;;;;;;;;;;13.90;99.90;;;;;;5037076;28;19931;-92
2022/10/14 13:25:56;;;;;;;;;;;13.90;99.90;;;;;;5010124;28;19967;-88
2022/10/14 13:28:34;;;;;;;;;;;13.90;99.90;;;;;;5015339;28;19929;-92
2022/10/14 13:31:14;;;;;;;;;;;13.90;99.90;;;;;;5015994;28;19921;-91
2022/10/14 13:33:47;;;;;;;;;;;13.90;99.90;;;;;;5022756;28;19944;-92
2022/10/14 13:36:22;;;;;;;;;;;13.90;99.90;;;;;;5014259;28;20295;-94
2022/10/14 13:38:58;;;;;;;;;;;13.90;99.90;;;;;;5011871;28;20331;-90
2022/10/14 13:41:24;;;;;;;;;;;13.90;99.90;;;;;;5030266;28;19921;-93
2022/10/14 13:43:52;;;;;;;;;;;13.90;99.90;;;;;;4993119;28;19924;-86
2022/10/14 13:46:21;;;;;;;;;;;13.90;99.90;;;;;;5025052;28;19931;-87
2022/10/14 13:48:49;;;;;;;;;;;13.90;99.90;;;;;;5025161;28;19925;-85
2022/10/14 13:51:14;;;;;;;;;;;13.90;99.90;;;;;;5024023;28;19983;-87
2022/10/14 13:53:51;;;;;;;;;;;14.30;99.90;;;;;;5024982;28;20384;-89
2022/10/14 13:56:28;;;;;;;;;;;14.00;99.90;;;;;;5007751;28;19925;-86
2022/10/14 13:58:54;;;;;;;;;;;14.00;99.90;;;;;;5025505;28;19976;-88
2022/10/14 14:01:21;;;;;;;;;;;14.30;99.90;;;;;;5024162;28;20279;-89
2022/10/14 14:03:52;;;;;;;;;;;14.60;99.90;;;;;;5008794;28;19925;-89
2022/10/14 14:06:19;;;;;;;;;;;14.10;99.90;;;;;;5009144;28;20398;-88
2022/10/14 14:08:55;;;;;;;;;;;14.10;99.90;;;;;;5011804;28;19921;-91
2022/10/14 14:11:25;;;;;;;;;;;14.10;99.90;;;;;;5010429;28;19928;-89
2022/10/14 14:14:09;;;;;;;;;;;14.20;99.90;;;;;;5010864;28;19928;-89
2022/10/14 14:16:38;;;;;;;;;;;14.20;99.90;;;;;;5010488;28;19976;-89
2022/10/14 14:19:04;;;;;;;;;;;14.20;99.90;;;;;;5025913;28;20128;-88
2022/10/14 14:21:31;;;;;;;;;;;14.20;99.90;;;;;;5029041;28;19921;-88
2022/10/14 14:23:58;;;;;;;;;;;14.20;99.90;;;;;;5011660;28;19925;-88
2022/10/14 14:26:34;;;;;;;;;;;14.20;99.90;;;;;;5037278;28;19963;-88
2022/10/14 14:29:03;;;;;;;;;;;14.30;99.90;;;;;;5029632;28;19921;-88
2022/10/14 14:31:28;;;;;;;;;;;13.40;99.90;;;;;;5034197;28;19921;-88